KBLF/BLF METAR and TAF weather

Enter ICAO airport designator
Station Type Date Time Source
KBLF METAR 2022/01/23 12:18 UTC NOAA

KBLF 231218Z AUTO 26008KT 10SM SCT016 M07/M09 A2996 RMK AO2 T10671094


Station Type Date Time Source
KBLF Decoded METAR 2022/01/23 12:18 UTC NOAA

BLUEFIELD MERCER COUNTY AIRPORT , WV, United States (KBLF) 37-18N 081-12W 873M
Jan 23, 2022 - 07:18 AM EST / 2022.01.23 1218 UTC
Wind: from the W (260 degrees) at 9 MPH (8 KT):0
Visibility: 10 mile(s):0
Sky conditions: partly cloudy
Temperature: 19.9 F (-6.7 C)
Windchill: 8 F (-13 C):1
Dew Point: 15.1 F (-9.4 C)
Relative Humidity: 81%
Pressure (altimeter): 29.96 in. Hg (1014 hPa)
ob: KBLF 231218Z AUTO 26008KT 10SM SCT016 M07/M09 A2996 RMK AO2 T10671094
cycle: 12

Station Type Date Time Source
KBLF TAF 2022/01/23 12:22 UTC NOAA

TAF KBLF 231120Z 2312/2412 27007KT P6SM SCT020
TEMPO 2312/2314 BKN020
FM231700 25010G18KT P6SM BKN200
FM240000 27012G20KT 6SM -SN OVC030
FM241000 29006KT P6SM OVC013

Example: see airport list